Time;durP1;ratioP1;P1;durP2;ratioP2;P2;SDS_P1;SDS_P2;PMS_P1;PMS_P2;Temp;Humidity;BMP_temperature;BMP_pressure;BME280_temperature;BME280_humidity;BME280_pressure;Samples;Min_cycle;Max_cycle;Signal;HPM_P1;HPM_P2
2022/04/14 00:00:18;;;;;;;11.30;5.00;;;;;;;10.31;46.47;100559.66;117228;1186;23573;-57
2022/04/14 00:02:47;;;;;;;6.80;4.10;;;;;;;10.32;46.42;100559.48;117325;1185;23552;-48
2022/04/14 00:05:15;;;;;;;7.70;4.30;;;;;;;10.30;46.48;100558.79;117144;1185;22820;-49
2022/04/14 00:07:46;;;;;;;6.40;3.50;;;;;;;10.29;46.59;100554.06;117322;1186;22968;-49
2022/04/14 00:10:35;;;;;;;10.40;4.50;;;;;;;10.29;46.76;100554.59;117250;1187;21863;-57
2022/04/14 00:13:03;;;;;;;12.50;4.30;;;;;;;10.28;46.77;100552.14;117257;1186;22636;-51
2022/04/14 00:15:52;;;;;;;12.10;4.50;;;;;;;10.29;46.64;100557.75;116953;1183;22168;-57
2022/04/14 00:18:21;;;;;;;7.80;3.70;;;;;;;10.28;46.62;100556.17;117273;1186;23555;-50
2022/04/14 00:20:50;;;;;;;17.80;8.00;;;;;;;10.27;46.72;100562.48;117350;1186;23560;-58
2022/04/14 00:23:18;;;;;;;25.20;10.40;;;;;;;10.26;46.64;100559.51;117239;1186;22972;-58
2022/04/14 00:25:53;;;;;;;44.20;18.40;;;;;;;10.26;46.73;100560.05;117180;1185;22783;-50
2022/04/14 00:28:21;;;;;;;47.20;20.10;;;;;;;10.25;46.50;100562.33;117279;1187;23529;-50
2022/04/14 00:30:49;;;;;;;39.00;18.60;;;;;;;10.25;46.55;100560.75;117282;1186;23553;-58
2022/04/14 00:33:19;;;;;;;15.60;7.60;;;;;;;10.23;46.53;100560.05;117143;1186;22087;-57
2022/04/14 00:35:47;;;;;;;6.40;3.70;;;;;;;10.22;46.47;100566.73;117349;1186;23576;-58
2022/04/14 00:38:15;;;;;;;8.20;3.90;;;;;;;10.21;46.46;100569.73;117258;1186;23580;-57
2022/04/14 00:40:45;;;;;;;11.30;5.30;;;;;;;10.20;46.51;100567.46;117347;1185;23554;-58
2022/04/14 00:43:13;;;;;;;12.30;7.80;;;;;;;10.19;46.49;100564.84;117286;1186;23585;-49
2022/04/14 00:45:42;;;;;;;7.10;3.90;;;;;;;10.18;46.38;100565.18;117251;1186;23598;-49
2022/04/14 00:48:13;;;;;;;8.30;3.70;;;;;;;10.16;46.34;100560.99;117261;1185;23553;-49
2022/04/14 00:50:41;;;;;;;;;;;;;;;10.16;46.29;100564.15;117279;1186;22801;-49
2022/04/14 00:53:11;;;;;;;6.00;3.70;;;;;;;10.15;46.30;100569.44;117232;1186;24006;-49
2022/04/14 00:55:59;;;;;;;9.30;5.40;;;;;;;10.13;46.30;100569.62;117061;1187;21854;-56
2022/04/14 00:58:30;;;;;;;6.50;3.20;;;;;;;10.11;46.33;100568.23;117011;1186;23588;-48
2022/04/14 01:01:05;;;;;;;7.70;3.30;;;;;;;10.08;46.41;100569.66;117122;1185;23606;-49
2022/04/14 01:03:34;;;;;;;7.90;4.10;;;;;;;10.06;46.48;100570.73;117298;1185;21849;-49
2022/04/14 01:06:04;;;;;;;6.30;3.80;;;;;;;10.03;46.54;100570.22;117286;1189;21920;-48
2022/04/14 01:08:37;;;;;;;6.10;3.10;;;;;;;10.00;46.42;100573.04;117259;1185;22929;-57
2022/04/14 01:11:08;;;;;;;5.10;2.40;;;;;;;9.96;46.38;100574.83;117233;1185;21837;-48
2022/04/14 01:13:47;;;;;;;6.40;3.30;;;;;;;9.91;46.46;100575.73;117264;1186;23627;-56
2022/04/14 01:16:15;;;;;;;5.70;2.70;;;;;;;9.89;46.12;100576.27;117205;1186;24172;-56
2022/04/14 01:19:00;;;;;;;5.50;2.50;;;;;;;9.87;46.22;100581.19;117236;1186;23577;-49
2022/04/14 01:21:33;;;;;;;5.90;2.60;;;;;;;9.85;46.36;100584.71;117213;1186;21853;-56
2022/04/14 01:24:02;;;;;;;7.20;3.00;;;;;;;9.83;46.25;100584.55;117340;1186;22617;-57
2022/04/14 01:26:31;;;;;;;5.00;2.20;;;;;;;9.81;46.32;100582.09;117279;1186;23278;-57
2022/04/14 01:28:59;;;;;;;5.30;2.60;;;;;;;9.80;46.42;100584.20;117140;1182;23453;-49
2022/04/14 01:31:29;;;;;;;4.90;2.30;;;;;;;9.79;46.37;100586.65;117088;1186;23576;-49
2022/04/14 01:33:57;;;;;;;7.80;3.10;;;;;;;9.78;46.33;100585.09;117291;1186;21859;-57
2022/04/14 01:36:45;;;;;;;9.00;3.50;;;;;;;9.77;46.31;100579.84;117214;1189;21859;-49
2022/04/14 01:39:14;;;;;;;7.30;3.10;;;;;;;9.76;46.56;100580.89;117229;1186;23601;-57
2022/04/14 01:41:43;;;;;;;6.50;2.50;;;;;;;9.76;46.50;100577.73;117286;1186;23653;-57
2022/04/14 01:44:11;;;;;;;5.20;2.60;;;;;;;9.76;46.39;100582.65;117300;1185;21850;-56
2022/04/14 01:46:41;;;;;;;6.50;2.50;;;;;;;9.74;46.41;100585.98;117293;1186;21902;-56
2022/04/14 01:49:10;;;;;;;5.70;2.50;;;;;;;9.70;46.55;100586.37;117148;1185;23564;-56
2022/04/14 01:51:38;;;;;;;7.10;3.00;;;;;;;9.65;46.47;100593.05;117325;1181;21933;-57
2022/04/14 01:54:06;;;;;;;5.70;2.60;;;;;;;9.60;46.45;100595.17;117256;1185;23550;-48
2022/04/14 01:56:36;;;;;;;7.40;2.80;;;;;;;9.56;46.42;100592.57;117212;1186;23603;-48
2022/04/14 01:59:04;;;;;;;6.10;3.30;;;;;;;9.52;46.46;100595.02;117162;1185;21837;-57
2022/04/14 02:01:33;;;;;;;7.60;3.00;;;;;;;9.51;46.52;100595.75;117288;1186;23547;-49
2022/04/14 02:04:07;;;;;;;5.90;2.50;;;;;;;9.50;46.51;100601.52;117184;1181;23592;-57
2022/04/14 02:06:35;;;;;;;6.00;2.60;;;;;;;9.49;46.50;100599.25;117126;1186;23573;-49
2022/04/14 02:09:05;;;;;;;7.70;3.10;;;;;;;9.50;46.56;100596.27;117157;1186;23550;-49
2022/04/14 02:11:34;;;;;;;6.10;2.90;;;;;;;9.50;46.42;100591.17;117203;1186;24270;-50
2022/04/14 02:14:02;;;;;;;5.40;2.20;;;;;;;9.53;46.62;100586.09;117231;1186;23464;-49
2022/04/14 02:16:31;;;;;;;7.00;2.70;;;;;;;9.56;46.74;100585.90;117089;1186;23679;-56
2022/04/14 02:18:59;;;;;;;6.80;2.30;;;;;;;9.57;46.75;100593.08;117240;1189;21858;-56
2022/04/14 02:21:29;;;;;;;5.90;2.80;;;;;;;9.59;46.81;100594.84;117251;1185;22652;-48
2022/04/14 02:23:57;;;;;;;5.00;2.50;;;;;;;9.60;46.85;100596.23;117112;1186;22838;-48
2022/04/14 02:26:26;;;;;;;6.10;2.20;;;;;;;9.61;46.77;100602.18;117109;1186;21853;-56
2022/04/14 02:28:55;;;;;;;6.20;2.60;;;;;;;9.62;46.79;100605.16;117217;1186;23603;-49
2022/04/14 02:31:24;;;;;;;4.50;2.50;;;;;;;9.68;46.68;100606.88;117220;1186;23576;-57
2022/04/14 02:33:52;;;;;;;6.60;3.00;;;;;;;9.62;46.87;100613.56;117215;1186;22793;-49
2022/04/14 02:36:20;;;;;;;6.20;2.70;;;;;;;9.58;46.82;100616.03;117246;1185;22647;-48
2022/04/14 02:38:49;;;;;;;6.40;2.90;;;;;;;9.54;46.71;100622.00;117277;1185;23579;-49
2022/04/14 02:41:17;;;;;;;5.40;2.40;;;;;;;9.53;46.74;100620.78;117317;1186;21839;-49
2022/04/14 02:43:45;;;;;;;7.00;2.50;;;;;;;9.52;46.66;100621.14;117169;1185;23552;-49
2022/04/14 02:46:15;;;;;;;5.60;2.80;;;;;;;9.50;46.73;100620.98;117307;1186;23576;-57
2022/04/14 02:48:43;;;;;;;6.80;2.40;;;;;;;9.46;46.69;100620.46;117311;1186;22911;-57
2022/04/14 02:51:12;;;;;;;9.00;2.90;;;;;;;9.43;46.75;100622.40;117267;1189;23634;-49
2022/04/14 02:53:42;;;;;;;6.00;2.10;;;;;;;9.42;46.71;100623.11;117040;1187;21899;-57
2022/04/14 02:56:10;;;;;;;7.30;2.70;;;;;;;9.38;46.73;100619.80;117268;1186;23269;-57
2022/04/14 02:58:38;;;;;;;5.80;2.20;;;;;;;9.35;46.65;100627.85;117178;1185;23570;-57
2022/04/14 03:01:06;;;;;;;5.00;2.40;;;;;;;9.35;46.57;100625.58;117171;1185;23568;-58
2022/04/14 03:03:35;;;;;;;7.80;3.20;;;;;;;9.36;46.61;100620.31;117318;1185;23560;-57
2022/04/14 03:06:03;;;;;;;6.20;2.30;;;;;;;9.22;46.88;100620.02;117309;1186;22945;-58
2022/04/14 03:08:32;;;;;;;5.00;2.10;;;;;;;9.18;46.89;100624.77;117247;1185;21852;-58
2022/04/14 03:11:02;;;;;;;5.40;2.20;;;;;;;9.15;46.90;100626.68;117234;1186;23581;-50
2022/04/14 03:13:33;;;;;;;5.30;2.40;;;;;;;9.13;46.91;100627.39;117047;1186;23489;-49
2022/04/14 03:16:02;;;;;;;6.00;2.30;;;;;;;9.05;47.12;100626.89;117228;1185;22964;-58
2022/04/14 03:18:43;;;;;;;4.80;2.20;;;;;;;9.00;47.15;100625.67;117097;1186;23566;-49
2022/04/14 03:21:11;;;;;;;3.90;1.90;;;;;;;8.96;47.06;100626.55;117212;1186;23579;-49
2022/04/14 03:23:51;;;;;;;6.00;2.90;;;;;;;8.93;47.19;100633.55;117406;1186;22828;-47
2022/04/14 03:26:19;;;;;;;5.80;2.30;;;;;;;8.89;47.27;100634.61;117268;1186;23555;-57
2022/04/14 03:28:48;;;;;;;6.80;2.60;;;;;;;8.86;47.22;100637.58;117278;1186;22820;-57
2022/04/14 03:31:16;;;;;;;6.20;2.30;;;;;;;8.83;47.33;100640.91;117212;1186;23555;-48
2022/04/14 03:33:49;;;;;;;6.20;2.70;;;;;;;8.84;47.35;100640.21;117143;1186;22547;-57
2022/04/14 03:36:37;;;;;;;6.10;2.30;;;;;;;8.87;47.29;100643.52;117252;1186;23555;-48
2022/04/14 03:39:06;;;;;;;6.00;2.70;;;;;;;8.91;47.40;100641.27;117265;1186;22934;-48
2022/04/14 03:41:34;;;;;;;7.30;2.60;;;;;;;8.94;47.52;100639.33;117203;1186;21851;-49
2022/04/14 03:44:11;;;;;;;11.40;3.00;;;;;;;8.98;47.34;100646.50;117212;1186;22803;-57
2022/04/14 03:46:42;;;;;;;;;;;;;;;9.01;47.30;100646.69;117248;1186;21845;-48
2022/04/14 03:49:12;;;;;;;7.80;3.20;;;;;;;9.02;47.34;100653.68;117282;1186;21864;-58
2022/04/14 03:51:41;;;;;;;8.00;2.60;;;;;;;9.02;47.41;100655.95;117163;1186;23566;-48
2022/04/14 03:54:09;;;;;;;10.50;3.40;;;;;;;9.01;47.43;100659.11;117289;1186;23596;-49
2022/04/14 03:56:39;;;;;;;6.60;3.00;;;;;;;8.98;47.60;100662.60;117305;1186;23458;-49
2022/04/14 03:59:08;;;;;;;8.20;2.90;;;;;;;8.96;47.37;100666.45;117240;1186;23589;-58
2022/04/14 04:01:37;;;;;;;12.90;3.20;;;;;;;8.92;47.56;100664.53;117187;1181;21892;-48
2022/04/14 04:04:06;;;;;;;6.10;2.80;;;;;;;8.93;47.52;100668.55;117293;1188;23596;-48
2022/04/14 04:06:34;;;;;;;11.10;3.30;;;;;;;8.97;47.61;100672.41;117367;1185;23552;-48
2022/04/14 04:09:22;;;;;;;7.10;2.60;;;;;;;9.02;47.61;100671.17;117043;1186;21850;-57
2022/04/14 04:11:52;;;;;;;6.90;2.80;;;;;;;9.05;47.56;100668.02;117279;1185;23581;-48
2022/04/14 04:14:41;;;;;;;8.40;3.70;;;;;;;9.06;47.67;100672.03;117250;1189;23561;-58
2022/04/14 04:17:09;;;;;;;8.90;3.20;;;;;;;9.07;47.78;100673.09;117293;1186;23553;-49
2022/04/14 04:19:57;;;;;;;7.60;3.30;;;;;;;9.10;47.88;100668.36;117235;1185;22001;-48
2022/04/14 04:22:26;;;;;;;7.40;3.20;;;;;;;9.12;47.72;100674.48;117306;1181;23551;-59
2022/04/14 04:24:54;;;;;;;7.90;3.30;;;;;;;9.15;47.63;100679.20;117263;1186;23576;-50
2022/04/14 04:27:22;;;;;;;5.50;2.80;;;;;;;9.19;47.69;100676.93;117218;1185;22620;-58
2022/04/14 04:29:51;;;;;;;6.20;3.10;;;;;;;9.23;47.84;100679.72;117251;1186;23557;-59
2022/04/14 04:32:20;;;;;;;8.70;4.00;;;;;;;9.27;47.81;100676.73;117090;1186;23598;-58
2022/04/14 04:34:48;;;;;;;5.70;3.20;;;;;;;9.31;47.77;100688.27;117272;1186;23272;-59
2022/04/14 04:37:19;;;;;;;7.10;3.30;;;;;;;9.37;47.81;100687.92;117224;1185;21854;-59
2022/04/14 04:39:47;;;;;;;7.10;3.50;;;;;;;9.46;47.94;100682.13;117309;1182;22648;-58
2022/04/14 04:42:15;;;;;;;7.40;3.20;;;;;;;9.50;47.85;100686.65;117362;1185;23631;-56
2022/04/14 04:44:56;;;;;;;6.50;3.10;;;;;;;9.52;47.96;100692.42;117167;1185;23652;-52
2022/04/14 04:47:24;;;;;;;5.40;2.90;;;;;;;9.56;47.83;100702.40;117235;1186;21898;-50
2022/04/14 04:50:00;;;;;;;7.20;3.20;;;;;;;9.58;47.85;100701.35;117224;1181;21971;-52
2022/04/14 04:52:43;;;;;;;5.90;3.30;;;;;;;9.61;47.93;100703.27;117174;1185;23568;-60
2022/04/14 04:55:13;;;;;;;6.40;3.60;;;;;;;9.68;47.96;100705.71;117030;1185;23552;-59
2022/04/14 04:57:41;;;;;;;6.80;2.80;;;;;;;9.76;48.02;100700.41;117269;1186;23581;-48
2022/04/14 05:00:12;;;;;;;6.60;3.10;;;;;;;9.81;47.97;100697.77;117243;1189;21851;-58
2022/04/14 05:02:40;;;;;;;5.90;3.50;;;;;;;9.85;47.96;100698.45;117290;1185;21838;-48
2022/04/14 05:05:09;;;;;;;6.50;3.40;;;;;;;9.90;47.91;100693.17;117076;1186;21838;-49
2022/04/14 05:07:40;;;;;;;8.20;4.00;;;;;;;9.97;47.85;100691.73;117274;1185;23715;-58
2022/04/14 05:10:09;;;;;;;9.80;3.60;;;;;;;9.99;47.98;100701.01;117254;1186;23646;-59
2022/04/14 05:12:37;;;;;;;6.70;3.30;;;;;;;10.11;48.03;100702.72;117207;1185;23563;-60
2022/04/14 05:15:09;;;;;;;7.60;3.10;;;;;;;10.20;48.07;100701.09;117211;1184;22966;-49
2022/04/14 05:17:57;;;;;;;7.50;3.50;;;;;;;10.32;48.19;100700.67;117220;1180;23666;-59
2022/04/14 05:20:25;;;;;;;5.70;3.40;;;;;;;10.45;48.20;100696.58;117287;1186;23554;-62
2022/04/14 05:23:11;;;;;;;7.60;3.30;;;;;;;10.64;48.40;100698.38;117208;1186;23657;-49
2022/04/14 05:25:39;;;;;;;6.30;3.50;;;;;;;10.78;48.24;100704.60;117216;1185;23552;-58
2022/04/14 05:28:08;;;;;;;8.00;3.60;;;;;;;10.92;48.06;100703.44;117293;1185;21970;-58
2022/04/14 05:30:56;;;;;;;6.50;3.60;;;;;;;10.95;48.26;100710.08;117208;1185;21841;-59
2022/04/14 05:33:25;;;;;;;7.60;3.50;;;;;;;11.08;48.12;100709.06;117067;1186;23563;-60
2022/04/14 05:35:54;;;;;;;5.90;3.50;;;;;;;11.10;48.21;100716.61;117311;1186;24012;-59
2022/04/14 05:38:22;;;;;;;6.30;3.30;;;;;;;11.11;48.13;100716.94;117308;1186;22649;-58
2022/04/14 05:40:51;;;;;;;7.20;3.80;;;;;;;11.19;47.96;100716.19;117171;1185;23634;-49
2022/04/14 05:43:21;;;;;;;6.40;3.80;;;;;;;11.21;47.93;100718.80;117292;1186;21902;-59
2022/04/14 05:45:50;;;;;;;6.30;3.50;;;;;;;11.27;47.74;100716.27;117203;1186;23569;-58
2022/04/14 05:48:39;;;;;;;7.90;3.90;;;;;;;11.29;47.89;100715.02;117148;1186;21850;-59
2022/04/14 05:51:10;;;;;;;7.20;3.70;;;;;;;11.31;47.71;100720.98;117095;1181;23550;-57
2022/04/14 05:53:39;;;;;;;7.40;3.80;;;;;;;11.34;47.88;100723.58;117280;1186;22090;-59
2022/04/14 05:56:08;;;;;;;8.20;4.00;;;;;;;11.39;47.90;100726.89;117108;1186;23548;-59
2022/04/14 05:58:38;;;;;;;7.40;3.70;;;;;;;11.45;47.67;100730.52;117031;1186;21983;-51
2022/04/14 06:01:07;;;;;;;7.30;3.70;;;;;;;11.56;47.70;100731.63;117111;1185;22636;-48
2022/04/14 06:03:40;;;;;;;6.50;3.90;;;;;;;11.62;47.85;100733.84;117131;1185;21862;-48
2022/04/14 06:06:11;;;;;;;8.20;4.10;;;;;;;11.69;47.93;100739.23;117145;1186;21848;-58
2022/04/14 06:08:40;;;;;;;;;;;;;;;11.79;47.93;100739.27;117095;1186;21879;-49
2022/04/14 06:11:29;;;;;;;6.20;3.70;;;;;;;11.90;48.14;100735.81;117081;1185;23512;-58
2022/04/14 06:13:58;;;;;;;11.50;5.80;;;;;;;12.01;47.93;100733.59;117301;1185;23633;-58
2022/04/14 06:16:46;;;;;;;29.80;18.60;;;;;;;12.21;47.88;100732.81;117148;1185;21860;-57
2022/04/14 06:19:15;;;;;;;34.30;18.30;;;;;;;12.28;48.10;100735.36;117083;1186;23726;-59
2022/04/14 06:21:44;;;;;;;19.80;12.70;;;;;;;12.43;48.12;100736.02;117268;1186;23574;-60
2022/04/14 06:24:13;;;;;;;11.40;8.20;;;;;;;12.63;48.40;100735.02;117083;1186;21896;-59
2022/04/14 06:27:01;;;;;;;7.80;4.80;;;;;;;12.94;48.45;100737.21;117197;1186;21852;-52
2022/04/14 06:29:30;;;;;;;7.10;4.70;;;;;;;13.15;48.35;100737.37;117089;1176;23699;-50
2022/04/14 06:31:59;;;;;;;15.10;8.40;;;;;;;13.29;48.21;100731.30;117083;1185;22804;-49
2022/04/14 06:34:28;;;;;;;12.30;6.90;;;;;;;13.43;48.22;100731.09;117225;1185;23577;-58
2022/04/14 06:36:56;;;;;;;12.50;7.10;;;;;;;13.57;48.20;100726.61;117252;1186;23573;-50
2022/04/14 06:39:25;;;;;;;8.80;5.60;;;;;;;13.59;48.21;100727.45;117206;1185;23651;-55
2022/04/14 06:41:53;;;;;;;11.60;6.60;;;;;;;13.64;48.28;100729.83;117295;1186;24285;-56
2022/04/14 06:44:21;;;;;;;14.00;7.80;;;;;;;13.69;48.26;100724.08;117253;1186;23556;-57
2022/04/14 06:46:59;;;;;;;8.40;4.90;;;;;;;13.76;48.26;100727.81;117110;1185;23553;-57
2022/04/14 06:49:27;;;;;;;9.50;4.80;;;;;;;13.89;48.43;100730.91;117162;1186;23577;-57
2022/04/14 06:51:56;;;;;;;11.70;7.30;;;;;;;14.05;48.36;100729.36;117277;1186;23554;-57
2022/04/14 06:54:44;;;;;;;19.40;11.00;;;;;;;14.22;48.51;100729.52;117242;1186;21929;-50
2022/04/14 06:57:13;;;;;;;16.50;9.10;;;;;;;14.40;48.55;100736.19;117118;1182;23535;-49
2022/04/14 06:59:41;;;;;;;13.80;8.00;;;;;;;14.59;48.42;100737.88;117199;1186;23576;-57
2022/04/14 07:02:31;;;;;;;29.00;12.30;;;;;;;14.81;48.60;100738.29;117251;1186;21852;-50
2022/04/14 07:05:00;;;;;;;10.80;6.00;;;;;;;15.03;48.52;100738.80;117185;1185;21850;-56
2022/04/14 07:07:35;;;;;;;7.60;4.70;;;;;;;15.26;48.54;100743.52;117088;1186;22886;-57
2022/04/14 07:10:05;;;;;;;6.80;3.70;;;;;;;15.47;48.48;100742.27;117052;1185;22004;-57
2022/04/14 07:12:38;;;;;;;6.60;4.00;;;;;;;15.68;48.37;100743.48;117209;1185;24703;-57
2022/04/14 07:15:11;;;;;;;7.20;3.70;;;;;;;15.90;48.26;100742.70;117201;1185;21851;-57
2022/04/14 07:17:40;;;;;;;6.90;4.60;;;;;;;16.10;47.98;100745.13;117169;1186;21883;-56
2022/04/14 07:20:11;;;;;;;5.80;3.40;;;;;;;16.20;47.83;100751.41;117244;1186;21865;-57
2022/04/14 07:22:50;;;;;;;8.40;4.90;;;;;;;16.29;47.74;100745.81;117219;1186;23491;-50
2022/04/14 07:25:24;;;;;;;12.20;4.90;;;;;;;16.43;47.79;100749.11;117175;1185;22074;-49
2022/04/14 07:27:53;;;;;;;5.60;3.50;;;;;;;16.60;47.88;100748.23;117307;1186;22641;-50
2022/04/14 07:30:23;;;;;;;10.90;4.10;;;;;;;16.83;47.93;100743.08;117272;1185;23414;-49
2022/04/14 07:32:52;;;;;;;7.80;3.50;;;;;;;17.11;47.81;100745.02;117080;1185;21894;-50
2022/04/14 07:35:22;;;;;;;6.50;3.60;;;;;;;17.20;47.52;100743.29;117015;1186;22972;-49
2022/04/14 07:37:51;;;;;;;5.70;3.20;;;;;;;17.24;47.37;100750.60;117110;1186;21918;-49
2022/04/14 07:40:39;;;;;;;7.80;3.40;;;;;;;17.37;47.39;100747.34;117143;1186;21856;-50
2022/04/14 07:43:07;;;;;;;6.30;3.60;;;;;;;17.49;47.23;100752.95;117199;1186;23691;-51
2022/04/14 07:45:36;;;;;;;6.00;3.40;;;;;;;17.63;47.43;100755.64;117259;1186;22620;-49
2022/04/14 07:48:05;;;;;;;8.50;4.80;;;;;;;17.87;47.53;100759.23;117229;1186;22827;-50
2022/04/14 07:50:34;;;;;;;10.90;4.80;;;;;;;18.10;47.50;100759.14;117067;1186;22813;-49
2022/04/14 07:53:22;;;;;;;6.40;4.50;;;;;;;18.31;47.18;100760.83;117230;1186;23555;-50
2022/04/14 07:55:51;;;;;;;6.90;3.60;;;;;;;18.49;47.16;100762.98;117328;1182;22905;-52
2022/04/14 07:58:21;;;;;;;6.30;3.80;;;;;;;18.66;46.93;100765.17;117054;1185;23566;-51
2022/04/14 08:00:52;;;;;;;6.50;4.00;;;;;;;18.75;46.84;100763.73;117059;1182;21857;-49
2022/04/14 08:03:22;;;;;;;11.30;5.10;;;;;;;18.93;47.01;100755.73;118324;1182;23552;-59
2022/04/14 08:05:50;;;;;;;8.40;5.10;;;;;;;19.14;46.82;100768.39;119245;1181;22234;-59
2022/04/14 08:08:19;;;;;;;11.10;5.80;;;;;;;19.24;46.61;100770.47;119293;1185;21786;-59
2022/04/14 08:10:48;;;;;;;10.80;6.30;;;;;;;19.35;46.68;100773.39;119320;1185;21785;-58
2022/04/14 08:13:18;;;;;;;7.70;5.40;;;;;;;19.57;46.77;100769.44;119295;1185;21789;-59
2022/04/14 08:15:46;;;;;;;6.90;3.70;;;;;;;19.79;46.65;100769.36;119334;1180;21774;-59
2022/04/14 08:18:14;;;;;;;5.80;3.20;;;;;;;20.04;46.50;100773.09;119337;1185;22263;-59
2022/04/14 08:20:44;;;;;;;5.70;2.90;;;;;;;20.16;46.42;100773.60;119318;1184;21795;-59
2022/04/14 08:23:14;;;;;;;5.10;2.40;;;;;;;20.24;46.14;100776.44;119247;1186;22528;-58
2022/04/14 08:25:43;;;;;;;4.50;2.60;;;;;;;20.25;46.01;100775.86;119276;1185;21806;-59
2022/04/14 08:28:40;;;;;;;4.50;2.10;;;;;;;20.15;45.57;100771.11;119331;1185;22153;-59
2022/04/14 08:31:09;;;;;;;3.90;2.70;;;;;;;19.90;45.11;100772.08;119305;1185;21825;-58
2022/04/14 08:33:39;;;;;;;4.70;2.20;;;;;;;19.64;45.13;100771.41;119341;1184;21764;-59
2022/04/14 08:36:15;;;;;;;3.30;2.20;;;;;;;19.49;45.08;100769.03;118658;1186;22918;-51
2022/04/14 08:38:46;;;;;;;4.70;2.90;;;;;;;19.46;45.18;100763.84;119307;1185;22200;-52
2022/04/14 08:41:17;;;;;;;3.80;2.20;;;;;;;19.58;45.43;100765.29;119323;1184;22341;-52
2022/04/14 08:44:02;;;;;;;4.30;2.50;;;;;;;19.64;45.08;100775.38;119237;1186;21791;-52
2022/04/14 08:46:31;;;;;;;4.20;2.10;;;;;;;19.59;45.05;100771.83;119325;1185;21775;-52
2022/04/14 08:48:59;;;;;;;6.70;2.50;;;;;;;19.58;45.05;100770.28;119269;1186;21755;-52
2022/04/14 08:51:29;;;;;;;4.80;2.00;;;;;;;19.61;45.01;100767.66;119363;1185;21679;-52
2022/04/14 08:54:13;;;;;;;6.80;2.40;;;;;;;19.63;44.74;100775.19;117550;1185;21862;-49
2022/04/14 08:57:02;;;;;;;4.90;2.30;;;;;;;19.66;44.70;100776.84;117165;1185;23583;-50
2022/04/14 08:59:30;;;;;;;4.70;2.40;;;;;;;19.64;44.58;100777.50;117092;1183;21858;-50
2022/04/14 09:02:03;;;;;;;5.40;2.50;;;;;;;19.61;44.61;100778.84;117055;1185;23568;-50
2022/04/14 09:04:33;;;;;;;8.20;3.00;;;;;;;19.57;44.34;100776.55;117628;1183;21862;-50
2022/04/14 09:07:10;;;;;;;4.50;3.10;;;;;;;19.43;44.02;100777.67;117026;1186;22644;-51
2022/04/14 09:09:39;;;;;;;4.80;2.90;;;;;;;19.31;44.18;100778.52;117185;1185;23647;-51
2022/04/14 09:12:16;;;;;;;5.20;2.40;;;;;;;19.34;44.36;100778.05;117147;1188;22708;-50
2022/04/14 09:14:48;;;;;;;5.70;2.50;;;;;;;19.46;44.58;100780.55;117275;1186;21861;-51
2022/04/14 09:17:36;;;;;;;4.50;2.70;;;;;;;19.61;44.26;100779.02;117292;1186;21871;-51
2022/04/14 09:20:27;;;;;;;4.30;2.00;;;;;;;19.66;44.08;100778.13;117298;1186;22949;-52
2022/04/14 09:23:22;;;;;;;5.30;2.30;;;;;;;19.75;44.28;100776.27;117192;1185;23555;-59
2022/04/14 09:26:23;;;;;;;5.10;2.50;;;;;;;19.90;44.36;100773.85;118799;1186;21850;-56
2022/04/14 09:29:06;;;;;;;7.30;2.70;;;;;;;20.21;44.36;100767.83;117241;1186;22821;-57
2022/04/14 09:31:54;;;;;;;4.90;2.10;;;;;;;20.54;44.50;100759.89;117260;1186;23566;-51
2022/04/14 09:34:48;;;;;;;4.50;2.40;;;;;;;20.83;44.28;100757.80;117342;1186;23487;-57
2022/04/14 09:37:18;;;;;;;5.20;2.30;;;;;;;21.00;44.06;100755.72;117248;1186;23629;-49
2022/04/14 09:40:08;;;;;;;4.70;2.20;;;;;;;21.14;44.04;100757.73;117245;1186;23649;-50
2022/04/14 09:42:41;;;;;;;4.90;2.60;;;;;;;21.29;43.98;100758.16;117301;1186;21915;-49
2022/04/14 09:45:20;;;;;;;3.40;1.60;;;;;;;21.41;43.97;100757.73;118932;1185;22553;-51
2022/04/14 09:48:06;;;;;;;11.20;6.50;;;;;;;21.50;43.73;100757.10;119329;1185;22308;-58
2022/04/14 09:50:39;;;;;;;5.10;2.60;;;;;;;21.57;43.55;100752.29;119353;1182;21775;-58
2022/04/14 09:53:19;;;;;;;5.20;2.90;;;;;;;21.59;43.46;100755.03;119272;1185;21837;-51
2022/04/14 09:55:49;;;;;;;8.50;4.50;;;;;;;21.62;43.41;100755.98;119341;1185;21793;-52
2022/04/14 09:58:19;;;;;;;14.70;9.00;;;;;;;21.63;43.16;100755.26;119317;1184;21783;-51
2022/04/14 10:00:55;;;;;;;11.00;4.90;;;;;;;21.69;43.43;100758.48;119295;1181;21765;-52
2022/04/14 10:03:25;;;;;;;7.20;4.50;;;;;;;21.78;43.00;100755.17;119246;1183;22193;-51
2022/04/14 10:05:56;;;;;;;13.00;8.30;;;;;;;21.77;42.47;100754.48;119328;1184;22318;-53
2022/04/14 10:08:51;;;;;;;14.80;6.50;;;;;;;21.75;42.59;100757.27;119295;1185;21814;-51
2022/04/14 10:11:30;;;;;;;10.00;5.50;;;;;;;21.75;42.46;100755.69;119310;1186;21799;-52
2022/04/14 10:14:13;;;;;;;6.30;4.00;;;;;;;21.72;42.52;100753.70;119349;1185;21781;-52
2022/04/14 10:16:41;;;;;;;5.20;3.00;;;;;;;21.69;42.63;100760.06;119287;1185;21762;-58
2022/04/14 10:19:30;;;;;;;6.00;2.40;;;;;;;21.62;42.66;100763.09;119375;1185;21695;-58
2022/04/14 10:21:58;;;;;;;6.50;3.60;;;;;;;21.60;42.62;100764.27;119228;1185;22350;-57
2022/04/14 10:24:31;;;;;;;6.20;3.90;;;;;;;21.61;42.65;100766.72;119358;1185;21786;-58
2022/04/14 10:26:59;;;;;;;6.10;3.10;;;;;;;21.55;42.36;100764.35;119282;1184;21798;-58
2022/04/14 10:29:28;;;;;;;6.20;2.20;;;;;;;21.48;42.05;100771.30;119203;1185;21783;-58
2022/04/14 10:31:56;;;;;;;6.20;2.50;;;;;;;21.39;41.63;100776.04;119170;1186;21771;-58
2022/04/14 10:34:25;;;;;;;4.60;2.30;;;;;;;21.24;41.68;100773.05;119225;1186;22706;-59
2022/04/14 10:36:53;;;;;;;7.20;3.10;;;;;;;21.13;41.89;100775.42;119015;1186;21816;-52
2022/04/14 10:39:21;;;;;;;8.30;3.90;;;;;;;21.09;41.98;100777.17;119177;1186;21776;-51
2022/04/14 10:41:51;;;;;;;7.30;2.80;;;;;;;21.08;41.65;100777.77;119180;1185;21868;-52
2022/04/14 10:44:22;;;;;;;7.10;4.20;;;;;;;20.97;41.76;100778.50;119239;1186;21809;-56
2022/04/14 10:46:55;;;;;;;5.20;2.60;;;;;;;20.93;41.87;100780.13;119186;1185;21769;-51
2022/04/14 10:49:43;;;;;;;5.50;2.60;;;;;;;20.89;41.75;100780.30;119277;1185;21773;-59
2022/04/14 10:52:34;;;;;;;7.10;3.80;;;;;;;20.83;41.71;100783.88;119228;1185;21787;-57
2022/04/14 10:55:03;;;;;;;6.90;3.50;;;;;;;20.78;41.63;100786.21;119333;1186;21773;-50
2022/04/14 10:57:39;;;;;;;9.10;2.70;;;;;;;20.76;41.50;100788.97;119359;1185;21843;-57
2022/04/14 11:00:19;;;;;;;6.30;2.40;;;;;;;20.65;40.86;100788.42;119332;1185;22256;-56
2022/04/14 11:03:03;;;;;;;8.20;3.20;;;;;;;20.51;40.96;100791.39;119364;1185;22295;-60
2022/04/14 11:05:44;;;;;;;5.80;2.70;;;;;;;20.45;40.98;100794.70;119344;1186;21767;-51
2022/04/14 11:08:32;;;;;;;5.10;2.40;;;;;;;20.49;41.42;100796.31;119332;1185;21784;-50
2022/04/14 11:11:13;;;;;;;5.50;2.90;;;;;;;20.60;41.50;100794.90;119363;1185;21764;-57
2022/04/14 11:14:04;;;;;;;4.90;2.60;;;;;;;20.77;41.69;100793.57;119325;1186;21786;-51
2022/04/14 11:16:46;;;;;;;5.20;2.40;;;;;;;20.89;41.47;100792.63;117725;1185;23664;-49
2022/04/14 11:19:22;;;;;;;4.00;2.50;;;;;;;20.92;41.40;100791.61;119304;1185;21773;-57
2022/04/14 11:21:58;;;;;;;5.50;2.70;;;;;;;20.95;41.42;100796.80;119326;1185;22276;-56
2022/04/14 11:24:45;;;;;;;4.90;2.40;;;;;;;20.99;41.44;100796.98;119338;1185;21820;-56
2022/04/14 11:27:28;;;;;;;6.40;2.50;;;;;;;21.01;41.42;100795.46;119365;1185;21818;-50
2022/04/14 11:29:59;;;;;;;5.40;1.90;;;;;;;21.02;41.27;100790.77;119323;1185;21758;-51
2022/04/14 11:32:40;;;;;;;7.80;2.50;;;;;;;20.97;41.29;100793.33;119006;1185;21792;-57
2022/04/14 11:35:30;;;;;;;5.20;2.60;;;;;;;20.91;41.26;100795.20;119343;1185;21813;-57
2022/04/14 11:37:58;;;;;;;4.90;2.30;;;;;;;20.90;41.26;100797.58;119349;1182;21845;-57
2022/04/14 11:40:28;;;;;;;4.80;2.40;;;;;;;20.89;41.26;100799.98;118439;1185;22830;-49
2022/04/14 11:43:00;;;;;;;5.90;2.60;;;;;;;20.91;41.39;100794.33;117993;1185;23018;-57
2022/04/14 11:45:30;;;;;;;4.80;2.30;;;;;;;20.92;41.36;100794.09;117123;1186;22576;-49